sensor_id;sensor_type;location;lat;lon;timestamp;P1;durP1;ratioP1;P2;durP2;ratioP2
18146;SDS011;9199;48.832;9.182;2023-05-07T00:01:36;7.73;;;3.83;;
18146;SDS011;9199;48.832;9.182;2023-05-07T00:04:03;8.55;;;3.95;;
18146;SDS011;9199;48.832;9.182;2023-05-07T00:06:30;7.03;;;3.67;;
18146;SDS011;9199;48.832;9.182;2023-05-07T00:08:59;7.28;;;3.53;;
18146;SDS011;9199;48.832;9.182;2023-05-07T00:11:26;5.65;;;3.30;;
18146;SDS011;9199;48.832;9.182;2023-05-07T00:13:53;6.43;;;3.57;;
18146;SDS011;9199;48.832;9.182;2023-05-07T00:16:20;6.72;;;3.72;;
18146;SDS011;9199;48.832;9.182;2023-05-07T00:18:47;7.78;;;3.90;;
18146;SDS011;9199;48.832;9.182;2023-05-07T00:21:14;8.88;;;4.50;;
18146;SDS011;9199;48.832;9.182;2023-05-07T00:23:41;8.43;;;4.57;;
18146;SDS011;9199;48.832;9.182;2023-05-07T00:26:09;9.77;;;4.90;;
18146;SDS011;9199;48.832;9.182;2023-05-07T00:28:35;8.98;;;4.35;;
18146;SDS011;9199;48.832;9.182;2023-05-07T00:31:02;7.93;;;4.20;;
18146;SDS011;9199;48.832;9.182;2023-05-07T00:33:29;8.73;;;3.70;;
18146;SDS011;9199;48.832;9.182;2023-05-07T00:35:56;7.70;;;4.18;;
18146;SDS011;9199;48.832;9.182;2023-05-07T00:38:22;7.83;;;4.77;;
18146;SDS011;9199;48.832;9.182;2023-05-07T00:40:49;8.75;;;5.72;;
18146;SDS011;9199;48.832;9.182;2023-05-07T00:43:17;9.75;;;5.15;;
18146;SDS011;9199;48.832;9.182;2023-05-07T00:45:44;6.40;;;3.80;;
18146;SDS011;9199;48.832;9.182;2023-05-07T00:48:11;8.65;;;4.10;;
18146;SDS011;9199;48.832;9.182;2023-05-07T00:50:39;8.37;;;3.80;;
18146;SDS011;9199;48.832;9.182;2023-05-07T00:53:06;8.38;;;3.85;;
18146;SDS011;9199;48.832;9.182;2023-05-07T00:55:32;6.78;;;3.90;;
18146;SDS011;9199;48.832;9.182;2023-05-07T00:57:59;9.00;;;3.50;;
18146;SDS011;9199;48.832;9.182;2023-05-07T01:00:28;7.75;;;4.25;;
18146;SDS011;9199;48.832;9.182;2023-05-07T01:02:54;7.47;;;4.30;;
18146;SDS011;9199;48.832;9.182;2023-05-07T01:05:21;7.47;;;4.18;;
18146;SDS011;9199;48.832;9.182;2023-05-07T01:07:50;8.57;;;4.10;;
18146;SDS011;9199;48.832;9.182;2023-05-07T01:10:19;9.93;;;5.05;;
18146;SDS011;9199;48.832;9.182;2023-05-07T01:12:46;9.20;;;4.40;;
18146;SDS011;9199;48.832;9.182;2023-05-07T01:15:14;7.27;;;3.77;;
18146;SDS011;9199;48.832;9.182;2023-05-07T01:17:43;6.60;;;3.67;;
18146;SDS011;9199;48.832;9.182;2023-05-07T01:20:10;7.35;;;3.88;;
18146;SDS011;9199;48.832;9.182;2023-05-07T01:22:39;7.95;;;3.97;;
18146;SDS011;9199;48.832;9.182;2023-05-07T01:25:06;7.90;;;4.18;;
18146;SDS011;9199;48.832;9.182;2023-05-07T01:27:34;8.97;;;4.30;;
18146;SDS011;9199;48.832;9.182;2023-05-07T01:30:02;8.32;;;4.47;;
18146;SDS011;9199;48.832;9.182;2023-05-07T01:32:31;6.93;;;4.63;;
18146;SDS011;9199;48.832;9.182;2023-05-07T01:35:01;6.88;;;4.00;;
18146;SDS011;9199;48.832;9.182;2023-05-07T01:37:31;6.35;;;3.80;;
18146;SDS011;9199;48.832;9.182;2023-05-07T01:39:59;7.87;;;4.60;;
18146;SDS011;9199;48.832;9.182;2023-05-07T01:42:28;9.13;;;5.22;;
18146;SDS011;9199;48.832;9.182;2023-05-07T01:44:55;7.70;;;4.80;;
18146;SDS011;9199;48.832;9.182;2023-05-07T01:47:22;10.15;;;5.03;;
18146;SDS011;9199;48.832;9.182;2023-05-07T01:49:50;9.30;;;5.00;;
18146;SDS011;9199;48.832;9.182;2023-05-07T01:52:16;9.70;;;4.67;;
18146;SDS011;9199;48.832;9.182;2023-05-07T01:54:45;9.63;;;4.70;;
18146;SDS011;9199;48.832;9.182;2023-05-07T01:57:13;9.73;;;5.55;;
18146;SDS011;9199;48.832;9.182;2023-05-07T01:59:40;8.70;;;4.95;;
18146;SDS011;9199;48.832;9.182;2023-05-07T02:02:07;10.90;;;5.05;;
18146;SDS011;9199;48.832;9.182;2023-05-07T02:04:33;9.43;;;5.30;;
18146;SDS011;9199;48.832;9.182;2023-05-07T02:07:00;8.93;;;4.63;;
18146;SDS011;9199;48.832;9.182;2023-05-07T02:09:27;6.93;;;3.78;;
18146;SDS011;9199;48.832;9.182;2023-05-07T02:11:54;6.03;;;3.60;;
18146;SDS011;9199;48.832;9.182;2023-05-07T02:14:22;6.45;;;3.92;;
18146;SDS011;9199;48.832;9.182;2023-05-07T02:16:48;6.50;;;3.63;;
18146;SDS011;9199;48.832;9.182;2023-05-07T02:19:15;6.85;;;3.63;;
18146;SDS011;9199;48.832;9.182;2023-05-07T02:21:42;5.82;;;3.58;;
18146;SDS011;9199;48.832;9.182;2023-05-07T02:24:08;6.60;;;3.60;;
18146;SDS011;9199;48.832;9.182;2023-05-07T02:26:35;5.90;;;3.40;;
18146;SDS011;9199;48.832;9.182;2023-05-07T02:29:01;6.67;;;3.57;;
18146;SDS011;9199;48.832;9.182;2023-05-07T02:31:30;6.75;;;3.70;;
18146;SDS011;9199;48.832;9.182;2023-05-07T02:33:58;6.68;;;3.38;;
18146;SDS011;9199;48.832;9.182;2023-05-07T02:36:25;7.22;;;3.88;;
18146;SDS011;9199;48.832;9.182;2023-05-07T02:38:52;9.27;;;3.47;;
18146;SDS011;9199;48.832;9.182;2023-05-07T02:41:19;6.77;;;3.67;;
18146;SDS011;9199;48.832;9.182;2023-05-07T02:43:46;6.93;;;3.35;;
18146;SDS011;9199;48.832;9.182;2023-05-07T02:46:13;7.78;;;3.75;;
18146;SDS011;9199;48.832;9.182;2023-05-07T02:48:42;5.88;;;3.42;;
18146;SDS011;9199;48.832;9.182;2023-05-07T02:51:08;7.13;;;3.70;;
18146;SDS011;9199;48.832;9.182;2023-05-07T02:53:35;6.57;;;3.80;;
18146;SDS011;9199;48.832;9.182;2023-05-07T02:56:02;7.07;;;3.67;;
18146;SDS011;9199;48.832;9.182;2023-05-07T02:58:29;6.45;;;3.55;;
18146;SDS011;9199;48.832;9.182;2023-05-07T03:00:56;7.32;;;3.45;;
18146;SDS011;9199;48.832;9.182;2023-05-07T03:03:22;5.78;;;3.53;;
18146;SDS011;9199;48.832;9.182;2023-05-07T03:05:51;6.50;;;3.83;;
18146;SDS011;9199;48.832;9.182;2023-05-07T03:08:17;6.43;;;3.50;;
18146;SDS011;9199;48.832;9.182;2023-05-07T03:10:44;7.25;;;3.65;;
18146;SDS011;9199;48.832;9.182;2023-05-07T03:13:11;5.85;;;3.58;;
18146;SDS011;9199;48.832;9.182;2023-05-07T03:15:38;6.30;;;3.95;;
18146;SDS011;9199;48.832;9.182;2023-05-07T03:18:04;6.70;;;3.33;;
18146;SDS011;9199;48.832;9.182;2023-05-07T03:20:31;6.13;;;3.90;;
18146;SDS011;9199;48.832;9.182;2023-05-07T03:22:59;7.10;;;4.40;;
18146;SDS011;9199;48.832;9.182;2023-05-07T03:25:26;8.32;;;4.47;;
18146;SDS011;9199;48.832;9.182;2023-05-07T03:27:53;9.20;;;4.80;;
18146;SDS011;9199;48.832;9.182;2023-05-07T03:30:19;8.33;;;4.67;;
18146;SDS011;9199;48.832;9.182;2023-05-07T03:32:48;8.73;;;4.70;;
18146;SDS011;9199;48.832;9.182;2023-05-07T03:35:15;8.35;;;4.75;;
18146;SDS011;9199;48.832;9.182;2023-05-07T03:37:42;7.47;;;4.47;;
18146;SDS011;9199;48.832;9.182;2023-05-07T03:40:10;7.45;;;4.40;;
18146;SDS011;9199;48.832;9.182;2023-05-07T03:42:37;8.03;;;4.67;;
18146;SDS011;9199;48.832;9.182;2023-05-07T03:45:05;7.10;;;4.40;;
18146;SDS011;9199;48.832;9.182;2023-05-07T03:47:32;10.65;;;4.60;;
18146;SDS011;9199;48.832;9.182;2023-05-07T03:49:59;7.30;;;4.13;;
18146;SDS011;9199;48.832;9.182;2023-05-07T03:52:26;7.00;;;4.45;;
18146;SDS011;9199;48.832;9.182;2023-05-07T03:54:52;9.17;;;4.77;;
18146;SDS011;9199;48.832;9.182;2023-05-07T03:57:21;8.45;;;4.68;;
18146;SDS011;9199;48.832;9.182;2023-05-07T03:59:47;8.13;;;4.40;;
18146;SDS011;9199;48.832;9.182;2023-05-07T04:02:14;7.40;;;4.43;;
18146;SDS011;9199;48.832;9.182;2023-05-07T04:04:41;7.20;;;4.60;;
18146;SDS011;9199;48.832;9.182;2023-05-07T04:07:07;7.77;;;4.60;;
18146;SDS011;9199;48.832;9.182;2023-05-07T04:09:35;8.23;;;5.22;;
18146;SDS011;9199;48.832;9.182;2023-05-07T04:12:02;7.35;;;4.78;;
18146;SDS011;9199;48.832;9.182;2023-05-07T04:14:30;8.27;;;4.30;;
18146;SDS011;9199;48.832;9.182;2023-05-07T04:16:58;10.98;;;5.10;;
18146;SDS011;9199;48.832;9.182;2023-05-07T04:19:24;8.07;;;5.13;;
18146;SDS011;9199;48.832;9.182;2023-05-07T04:21:51;8.88;;;5.43;;
18146;SDS011;9199;48.832;9.182;2023-05-07T04:24:18;8.50;;;5.13;;
18146;SDS011;9199;48.832;9.182;2023-05-07T04:26:45;9.32;;;4.82;;
18146;SDS011;9199;48.832;9.182;2023-05-07T04:29:11;7.97;;;5.13;;
18146;SDS011;9199;48.832;9.182;2023-05-07T04:31:39;8.93;;;5.37;;
18146;SDS011;9199;48.832;9.182;2023-05-07T04:34:09;8.00;;;5.22;;
18146;SDS011;9199;48.832;9.182;2023-05-07T04:36:36;9.40;;;5.45;;
18146;SDS011;9199;48.832;9.182;2023-05-07T04:39:03;7.90;;;4.65;;
18146;SDS011;9199;48.832;9.182;2023-05-07T04:41:31;9.15;;;5.20;;
18146;SDS011;9199;48.832;9.182;2023-05-07T04:43:58;8.07;;;5.10;;
18146;SDS011;9199;48.832;9.182;2023-05-07T04:46:25;8.30;;;4.38;;
18146;SDS011;9199;48.832;9.182;2023-05-07T04:48:53;8.60;;;5.10;;
18146;SDS011;9199;48.832;9.182;2023-05-07T04:51:20;10.40;;;4.85;;
18146;SDS011;9199;48.832;9.182;2023-05-07T04:53:47;8.57;;;5.28;;
18146;SDS011;9199;48.832;9.182;2023-05-07T04:56:13;8.63;;;5.20;;
18146;SDS011;9199;48.832;9.182;2023-05-07T04:58:40;7.07;;;4.43;;
18146;SDS011;9199;48.832;9.182;2023-05-07T05:01:07;9.27;;;5.30;;
18146;SDS011;9199;48.832;9.182;2023-05-07T05:03:34;8.27;;;4.72;;
18146;SDS011;9199;48.832;9.182;2023-05-07T05:06:02;9.38;;;5.20;;
18146;SDS011;9199;48.832;9.182;2023-05-07T05:08:29;7.93;;;4.87;;
18146;SDS011;9199;48.832;9.182;2023-05-07T05:10:56;7.53;;;4.60;;
18146;SDS011;9199;48.832;9.182;2023-05-07T05:13:23;8.95;;;4.47;;
18146;SDS011;9199;48.832;9.182;2023-05-07T05:15:49;9.05;;;4.72;;
18146;SDS011;9199;48.832;9.182;2023-05-07T05:18:16;10.85;;;5.03;;
18146;SDS011;9199;48.832;9.182;2023-05-07T05:20:43;9.53;;;5.17;;
18146;SDS011;9199;48.832;9.182;2023-05-07T05:23:11;11.52;;;5.70;;
18146;SDS011;9199;48.832;9.182;2023-05-07T05:25:38;9.43;;;4.47;;
18146;SDS011;9199;48.832;9.182;2023-05-07T05:28:05;8.85;;;4.38;;
18146;SDS011;9199;48.832;9.182;2023-05-07T05:30:31;8.35;;;4.70;;
18146;SDS011;9199;48.832;9.182;2023-05-07T05:32:59;6.13;;;4.03;;
18146;SDS011;9199;48.832;9.182;2023-05-07T05:35:26;7.55;;;4.30;;
18146;SDS011;9199;48.832;9.182;2023-05-07T05:37:52;7.22;;;4.50;;
18146;SDS011;9199;48.832;9.182;2023-05-07T05:40:20;8.20;;;4.80;;
18146;SDS011;9199;48.832;9.182;2023-05-07T05:42:47;6.65;;;4.28;;
18146;SDS011;9199;48.832;9.182;2023-05-07T05:45:14;7.60;;;4.90;;
18146;SDS011;9199;48.832;9.182;2023-05-07T05:47:41;8.07;;;4.57;;
18146;SDS011;9199;48.832;9.182;2023-05-07T05:50:07;7.20;;;4.88;;
18146;SDS011;9199;48.832;9.182;2023-05-07T05:52:34;8.82;;;4.72;;
18146;SDS011;9199;48.832;9.182;2023-05-07T05:55:01;8.05;;;5.10;;
18146;SDS011;9199;48.832;9.182;2023-05-07T05:57:29;8.33;;;5.10;;
18146;SDS011;9199;48.832;9.182;2023-05-07T05:59:56;7.85;;;4.80;;
18146;SDS011;9199;48.832;9.182;2023-05-07T06:02:23;7.40;;;4.70;;
18146;SDS011;9199;48.832;9.182;2023-05-07T06:04:50;7.15;;;4.30;;
18146;SDS011;9199;48.832;9.182;2023-05-07T06:07:16;6.68;;;4.10;;
18146;SDS011;9199;48.832;9.182;2023-05-07T06:09:43;8.57;;;4.40;;
18146;SDS011;9199;48.832;9.182;2023-05-07T06:12:11;7.18;;;4.43;;
18146;SDS011;9199;48.832;9.182;2023-05-07T06:14:39;9.93;;;4.80;;
18146;SDS011;9199;48.832;9.182;2023-05-07T06:17:06;7.90;;;3.97;;
18146;SDS011;9199;48.832;9.182;2023-05-07T06:19:33;5.93;;;3.78;;
18146;SDS011;9199;48.832;9.182;2023-05-07T06:22:00;7.23;;;4.00;;
18146;SDS011;9199;48.832;9.182;2023-05-07T06:24:27;6.57;;;4.10;;
18146;SDS011;9199;48.832;9.182;2023-05-07T06:26:54;7.18;;;4.10;;
18146;SDS011;9199;48.832;9.182;2023-05-07T06:29:23;6.55;;;4.32;;
18146;SDS011;9199;48.832;9.182;2023-05-07T06:31:52;6.45;;;3.97;;
18146;SDS011;9199;48.832;9.182;2023-05-07T06:34:19;7.40;;;4.07;;
18146;SDS011;9199;48.832;9.182;2023-05-07T06:36:45;5.72;;;3.90;;
18146;SDS011;9199;48.832;9.182;2023-05-07T06:39:12;6.68;;;3.80;;
18146;SDS011;9199;48.832;9.182;2023-05-07T06:41:39;5.90;;;3.72;;
18146;SDS011;9199;48.832;9.182;2023-05-07T06:44:06;5.95;;;3.97;;
18146;SDS011;9199;48.832;9.182;2023-05-07T06:46:32;7.13;;;4.20;;
18146;SDS011;9199;48.832;9.182;2023-05-07T06:49:00;6.63;;;3.42;;
18146;SDS011;9199;48.832;9.182;2023-05-07T06:51:27;6.43;;;3.65;;
18146;SDS011;9199;48.832;9.182;2023-05-07T06:53:54;5.88;;;3.45;;
18146;SDS011;9199;48.832;9.182;2023-05-07T06:56:21;6.50;;;3.55;;
18146;SDS011;9199;48.832;9.182;2023-05-07T06:58:48;7.47;;;3.27;;
18146;SDS011;9199;48.832;9.182;2023-05-07T07:01:15;5.18;;;2.70;;
18146;SDS011;9199;48.832;9.182;2023-05-07T07:03:41;4.55;;;2.85;;
18146;SDS011;9199;48.832;9.182;2023-05-07T07:06:09;5.13;;;2.60;;
18146;SDS011;9199;48.832;9.182;2023-05-07T07:08:36;6.00;;;3.30;;
18146;SDS011;9199;48.832;9.182;2023-05-07T07:11:04;5.37;;;3.10;;
18146;SDS011;9199;48.832;9.182;2023-05-07T07:13:31;5.15;;;3.00;;
18146;SDS011;9199;48.832;9.182;2023-05-07T07:15:58;5.50;;;3.38;;
18146;SDS011;9199;48.832;9.182;2023-05-07T07:18:25;5.38;;;3.20;;
18146;SDS011;9199;48.832;9.182;2023-05-07T07:20:52;5.03;;;3.33;;
18146;SDS011;9199;48.832;9.182;2023-05-07T07:23:20;5.13;;;3.00;;
18146;SDS011;9199;48.832;9.182;2023-05-07T07:25:47;5.93;;;3.30;;
18146;SDS011;9199;48.832;9.182;2023-05-07T07:28:14;4.85;;;3.03;;
18146;SDS011;9199;48.832;9.182;2023-05-07T07:30:41;6.30;;;2.92;;
18146;SDS011;9199;48.832;9.182;2023-05-07T07:33:07;5.20;;;3.08;;
18146;SDS011;9199;48.832;9.182;2023-05-07T07:35:34;5.20;;;3.13;;
18146;SDS011;9199;48.832;9.182;2023-05-07T07:38:01;6.20;;;3.10;;
18146;SDS011;9199;48.832;9.182;2023-05-07T07:40:29;6.78;;;2.85;;
18146;SDS011;9199;48.832;9.182;2023-05-07T07:42:56;4.60;;;2.60;;
18146;SDS011;9199;48.832;9.182;2023-05-07T07:45:23;5.78;;;2.97;;
18146;SDS011;9199;48.832;9.182;2023-05-07T07:47:50;5.40;;;2.93;;
18146;SDS011;9199;48.832;9.182;2023-05-07T07:50:17;6.47;;;3.50;;
18146;SDS011;9199;48.832;9.182;2023-05-07T07:52:44;5.97;;;3.40;;
18146;SDS011;9199;48.832;9.182;2023-05-07T07:55:11;5.25;;;3.50;;
18146;SDS011;9199;48.832;9.182;2023-05-07T07:57:39;5.15;;;3.15;;
18146;SDS011;9199;48.832;9.182;2023-05-07T08:00:06;5.30;;;3.00;;
18146;SDS011;9199;48.832;9.182;2023-05-07T08:02:34;4.78;;;3.20;;
18146;SDS011;9199;48.832;9.182;2023-05-07T08:05:01;5.47;;;3.20;;
18146;SDS011;9199;48.832;9.182;2023-05-07T08:07:28;5.20;;;3.10;;
18146;SDS011;9199;48.832;9.182;2023-05-07T08:09:55;8.30;;;3.42;;
18146;SDS011;9199;48.832;9.182;2023-05-07T08:12:22;5.57;;;3.13;;
18146;SDS011;9199;48.832;9.182;2023-05-07T08:14:50;5.30;;;2.58;;
18146;SDS011;9199;48.832;9.182;2023-05-07T08:17:17;6.65;;;3.00;;
18146;SDS011;9199;48.832;9.182;2023-05-07T08:19:43;6.85;;;3.28;;
18146;SDS011;9199;48.832;9.182;2023-05-07T08:22:10;5.68;;;2.90;;
18146;SDS011;9199;48.832;9.182;2023-05-07T08:24:37;5.43;;;2.80;;
18146;SDS011;9199;48.832;9.182;2023-05-07T08:27:04;5.93;;;3.13;;
18146;SDS011;9199;48.832;9.182;2023-05-07T08:29:31;5.97;;;2.90;;
18146;SDS011;9199;48.832;9.182;2023-05-07T08:31:59;4.85;;;2.80;;
18146;SDS011;9199;48.832;9.182;2023-05-07T08:34:26;5.97;;;3.60;;
18146;SDS011;9199;48.832;9.182;2023-05-07T08:36:53;5.97;;;3.10;;
18146;SDS011;9199;48.832;9.182;2023-05-07T08:39:20;4.70;;;2.50;;
18146;SDS011;9199;48.832;9.182;2023-05-07T08:41:47;5.68;;;3.22;;
18146;SDS011;9199;48.832;9.182;2023-05-07T08:44:18;6.40;;;3.10;;
18146;SDS011;9199;48.832;9.182;2023-05-07T08:46:48;5.93;;;3.05;;
18146;SDS011;9199;48.832;9.182;2023-05-07T08:49:21;4.93;;;3.00;;
18146;SDS011;9199;48.832;9.182;2023-05-07T08:51:48;7.22;;;3.13;;
18146;SDS011;9199;48.832;9.182;2023-05-07T08:54:15;6.38;;;3.22;;
18146;SDS011;9199;48.832;9.182;2023-05-07T08:56:42;5.32;;;2.92;;
18146;SDS011;9199;48.832;9.182;2023-05-07T08:59:10;5.90;;;2.58;;
18146;SDS011;9199;48.832;9.182;2023-05-07T09:01:36;5.67;;;2.90;;
18146;SDS011;9199;48.832;9.182;2023-05-07T09:04:03;6.75;;;2.88;;
18146;SDS011;9199;48.832;9.182;2023-05-07T09:06:33;5.43;;;3.33;;
18146;SDS011;9199;48.832;9.182;2023-05-07T09:09:00;5.85;;;3.08;;
18146;SDS011;9199;48.832;9.182;2023-05-07T09:11:30;5.32;;;2.80;;
18146;SDS011;9199;48.832;9.182;2023-05-07T09:13:57;4.50;;;2.63;;
18146;SDS011;9199;48.832;9.182;2023-05-07T09:16:26;5.45;;;2.90;;
18146;SDS011;9199;48.832;9.182;2023-05-07T09:18:54;5.82;;;2.70;;
18146;SDS011;9199;48.832;9.182;2023-05-07T09:21:24;5.50;;;2.40;;
18146;SDS011;9199;48.832;9.182;2023-05-07T09:23:52;5.22;;;2.58;;
18146;SDS011;9199;48.832;9.182;2023-05-07T09:26:20;4.67;;;2.47;;
18146;SDS011;9199;48.832;9.182;2023-05-07T09:28:47;3.90;;;2.15;;
18146;SDS011;9199;48.832;9.182;2023-05-07T09:31:14;5.18;;;2.53;;
18146;SDS011;9199;48.832;9.182;2023-05-07T09:33:41;5.22;;;2.40;;
18146;SDS011;9199;48.832;9.182;2023-05-07T09:36:08;5.65;;;2.33;;
18146;SDS011;9199;48.832;9.182;2023-05-07T09:38:36;4.83;;;2.20;;
18146;SDS011;9199;48.832;9.182;2023-05-07T09:41:05;5.32;;;1.90;;
18146;SDS011;9199;48.832;9.182;2023-05-07T09:43:33;3.78;;;2.08;;
18146;SDS011;9199;48.832;9.182;2023-05-07T09:46:06;5.07;;;2.20;;
18146;SDS011;9199;48.832;9.182;2023-05-07T09:48:35;3.95;;;2.00;;
18146;SDS011;9199;48.832;9.182;2023-05-07T09:51:06;4.23;;;2.10;;
18146;SDS011;9199;48.832;9.182;2023-05-07T09:53:40;3.58;;;1.73;;
18146;SDS011;9199;48.832;9.182;2023-05-07T09:56:09;5.60;;;2.00;;
18146;SDS011;9199;48.832;9.182;2023-05-07T09:58:36;6.15;;;2.25;;
18146;SDS011;9199;48.832;9.182;2023-05-07T10:01:05;5.43;;;1.80;;
18146;SDS011;9199;48.832;9.182;2023-05-07T10:03:32;4.10;;;1.83;;
18146;SDS011;9199;48.832;9.182;2023-05-07T10:06:01;6.70;;;1.90;;
18146;SDS011;9199;48.832;9.182;2023-05-07T10:08:30;4.78;;;1.90;;
18146;SDS011;9199;48.832;9.182;2023-05-07T10:10:57;4.70;;;2.00;;
18146;SDS011;9199;48.832;9.182;2023-05-07T10:13:25;4.25;;;2.05;;
18146;SDS011;9199;48.832;9.182;2023-05-07T10:15:52;3.90;;;1.90;;
18146;SDS011;9199;48.832;9.182;2023-05-07T10:18:21;4.43;;;1.80;;
18146;SDS011;9199;48.832;9.182;2023-05-07T10:20:54;4.40;;;2.03;;
18146;SDS011;9199;48.832;9.182;2023-05-07T10:23:26;4.85;;;1.88;;
18146;SDS011;9199;48.832;9.182;2023-05-07T10:25:54;4.93;;;2.40;;
18146;SDS011;9199;48.832;9.182;2023-05-07T10:28:27;5.13;;;2.13;;
18146;SDS011;9199;48.832;9.182;2023-05-07T10:30:59;5.03;;;2.22;;
18146;SDS011;9199;48.832;9.182;2023-05-07T10:33:34;5.13;;;2.00;;
18146;SDS011;9199;48.832;9.182;2023-05-07T10:36:02;4.20;;;1.98;;
18146;SDS011;9199;48.832;9.182;2023-05-07T10:38:30;4.22;;;2.20;;
18146;SDS011;9199;48.832;9.182;2023-05-07T10:40:57;3.37;;;1.60;;
18146;SDS011;9199;48.832;9.182;2023-05-07T10:43:24;4.03;;;1.90;;
18146;SDS011;9199;48.832;9.182;2023-05-07T10:46:10;5.22;;;2.22;;
18146;SDS011;9199;48.832;9.182;2023-05-07T10:51:37;5.55;;;2.10;;
18146;SDS011;9199;48.832;9.182;2023-05-07T10:54:21;6.07;;;2.40;;
18146;SDS011;9199;48.832;9.182;2023-05-07T10:56:49;8.75;;;2.20;;
18146;SDS011;9199;48.832;9.182;2023-05-07T11:02:08;3.80;;;1.90;;
18146;SDS011;9199;48.832;9.182;2023-05-07T11:04:36;4.45;;;2.40;;
18146;SDS011;9199;48.832;9.182;2023-05-07T11:09:58;5.50;;;2.80;;
18146;SDS011;9199;48.832;9.182;2023-05-07T11:12:48;4.85;;;2.35;;
18146;SDS011;9199;48.832;9.182;2023-05-07T11:18:10;4.40;;;2.33;;
18146;SDS011;9199;48.832;9.182;2023-05-07T11:20:51;4.60;;;2.20;;
18146;SDS011;9199;48.832;9.182;2023-05-07T11:26:41;5.50;;;2.60;;
18146;SDS011;9199;48.832;9.182;2023-05-07T11:29:11;5.55;;;2.00;;
18146;SDS011;9199;48.832;9.182;2023-05-07T11:31:38;4.20;;;1.90;;
18146;SDS011;9199;48.832;9.182;2023-05-07T11:34:06;4.47;;;1.97;;
18146;SDS011;9199;48.832;9.182;2023-05-07T11:36:34;6.43;;;2.40;;
18146;SDS011;9199;48.832;9.182;2023-05-07T11:39:20;4.35;;;2.17;;
18146;SDS011;9199;48.832;9.182;2023-05-07T11:41:50;4.70;;;2.20;;
18146;SDS011;9199;48.832;9.182;2023-05-07T11:44:16;4.65;;;2.20;;
18146;SDS011;9199;48.832;9.182;2023-05-07T11:46:43;4.27;;;2.17;;
18146;SDS011;9199;48.832;9.182;2023-05-07T11:49:12;4.47;;;2.35;;
18146;SDS011;9199;48.832;9.182;2023-05-07T11:51:39;4.18;;;2.50;;
18146;SDS011;9199;48.832;9.182;2023-05-07T11:54:10;7.32;;;2.40;;
18146;SDS011;9199;48.832;9.182;2023-05-07T11:56:38;3.70;;;2.08;;
18146;SDS011;9199;48.832;9.182;2023-05-07T11:59:05;4.13;;;2.20;;
18146;SDS011;9199;48.832;9.182;2023-05-07T12:01:34;4.75;;;2.00;;
18146;SDS011;9199;48.832;9.182;2023-05-07T12:04:02;4.80;;;2.17;;
18146;SDS011;9199;48.832;9.182;2023-05-07T12:06:35;4.35;;;2.20;;
18146;SDS011;9199;48.832;9.182;2023-05-07T12:09:02;5.40;;;2.33;;
18146;SDS011;9199;48.832;9.182;2023-05-07T12:11:32;4.17;;;2.30;;
18146;SDS011;9199;48.832;9.182;2023-05-07T12:13:59;5.65;;;2.22;;
18146;SDS011;9199;48.832;9.182;2023-05-07T12:16:26;5.20;;;2.28;;
18146;SDS011;9199;48.832;9.182;2023-05-07T12:18:53;4.68;;;2.10;;
18146;SDS011;9199;48.832;9.182;2023-05-07T12:21:20;4.78;;;2.13;;
18146;SDS011;9199;48.832;9.182;2023-05-07T12:23:49;4.47;;;2.00;;
18146;SDS011;9199;48.832;9.182;2023-05-07T12:26:16;5.13;;;2.10;;
18146;SDS011;9199;48.832;9.182;2023-05-07T12:28:45;6.18;;;2.40;;
18146;SDS011;9199;48.832;9.182;2023-05-07T12:31:13;5.47;;;2.60;;
18146;SDS011;9199;48.832;9.182;2023-05-07T12:33:40;5.55;;;2.60;;
18146;SDS011;9199;48.832;9.182;2023-05-07T12:36:08;4.97;;;2.73;;
18146;SDS011;9199;48.832;9.182;2023-05-07T12:38:35;5.07;;;2.45;;
18146;SDS011;9199;48.832;9.182;2023-05-07T12:41:05;4.35;;;2.45;;
18146;SDS011;9199;48.832;9.182;2023-05-07T12:43:32;6.60;;;2.45;;
18146;SDS011;9199;48.832;9.182;2023-05-07T12:46:00;5.13;;;1.98;;
18146;SDS011;9199;48.832;9.182;2023-05-07T12:48:29;4.87;;;2.17;;
18146;SDS011;9199;48.832;9.182;2023-05-07T12:50:57;4.97;;;2.63;;
18146;SDS011;9199;48.832;9.182;2023-05-07T12:53:25;5.18;;;2.70;;
18146;SDS011;9199;48.832;9.182;2023-05-07T12:55:53;5.38;;;2.50;;
18146;SDS011;9199;48.832;9.182;2023-05-07T12:58:25;8.02;;;3.55;;
18146;SDS011;9199;48.832;9.182;2023-05-07T13:00:53;9.77;;;4.30;;
18146;SDS011;9199;48.832;9.182;2023-05-07T13:03:24;9.10;;;4.10;;
18146;SDS011;9199;48.832;9.182;2023-05-07T13:05:51;9.23;;;3.70;;
18146;SDS011;9199;48.832;9.182;2023-05-07T13:08:26;6.90;;;3.42;;
18146;SDS011;9199;48.832;9.182;2023-05-07T13:10:54;7.65;;;2.90;;
18146;SDS011;9199;48.832;9.182;2023-05-07T13:13:21;7.50;;;2.80;;
18146;SDS011;9199;48.832;9.182;2023-05-07T13:15:49;4.50;;;2.60;;
18146;SDS011;9199;48.832;9.182;2023-05-07T13:18:16;4.85;;;2.10;;
18146;SDS011;9199;48.832;9.182;2023-05-07T13:20:43;3.22;;;1.65;;
18146;SDS011;9199;48.832;9.182;2023-05-07T13:23:09;5.72;;;1.77;;
18146;SDS011;9199;48.832;9.182;2023-05-07T13:25:36;3.73;;;1.40;;
18146;SDS011;9199;48.832;9.182;2023-05-07T13:28:03;4.35;;;1.35;;
18146;SDS011;9199;48.832;9.182;2023-05-07T13:30:30;5.28;;;1.40;;
18146;SDS011;9199;48.832;9.182;2023-05-07T13:32:58;3.60;;;1.63;;
18146;SDS011;9199;48.832;9.182;2023-05-07T13:35:25;8.13;;;1.90;;
18146;SDS011;9199;48.832;9.182;2023-05-07T13:37:52;7.97;;;1.93;;
18146;SDS011;9199;48.832;9.182;2023-05-07T13:40:19;5.28;;;2.22;;
18146;SDS011;9199;48.832;9.182;2023-05-07T13:42:47;5.95;;;2.35;;
18146;SDS011;9199;48.832;9.182;2023-05-07T13:45:13;5.20;;;1.73;;
18146;SDS011;9199;48.832;9.182;2023-05-07T13:47:40;5.53;;;1.80;;
18146;SDS011;9199;48.832;9.182;2023-05-07T13:50:09;4.77;;;1.67;;
18146;SDS011;9199;48.832;9.182;2023-05-07T13:52:40;3.25;;;1.38;;
18146;SDS011;9199;48.832;9.182;2023-05-07T13:55:08;2.70;;;1.10;;
18146;SDS011;9199;48.832;9.182;2023-05-07T13:57:36;2.90;;;0.85;;
18146;SDS011;9199;48.832;9.182;2023-05-07T14:00:03;3.30;;;0.80;;
18146;SDS011;9199;48.832;9.182;2023-05-07T14:02:31;3.00;;;1.20;;
18146;SDS011;9199;48.832;9.182;2023-05-07T14:05:01;2.72;;;1.00;;
18146;SDS011;9199;48.832;9.182;2023-05-07T14:07:29;3.83;;;1.00;;
18146;SDS011;9199;48.832;9.182;2023-05-07T14:09:56;3.53;;;0.95;;
18146;SDS011;9199;48.832;9.182;2023-05-07T14:12:23;2.92;;;1.20;;
18146;SDS011;9199;48.832;9.182;2023-05-07T14:14:50;3.03;;;0.90;;
18146;SDS011;9199;48.832;9.182;2023-05-07T14:17:17;4.40;;;1.70;;
18146;SDS011;9199;48.832;9.182;2023-05-07T14:19:45;4.90;;;1.95;;
18146;SDS011;9199;48.832;9.182;2023-05-07T14:22:12;4.68;;;1.88;;
18146;SDS011;9199;48.832;9.182;2023-05-07T14:24:41;4.97;;;2.10;;
18146;SDS011;9199;48.832;9.182;2023-05-07T14:27:08;5.50;;;2.03;;
18146;SDS011;9199;48.832;9.182;2023-05-07T14:29:34;6.25;;;2.78;;
18146;SDS011;9199;48.832;9.182;2023-05-07T14:32:01;7.18;;;3.22;;
18146;SDS011;9199;48.832;9.182;2023-05-07T14:34:28;6.57;;;2.92;;
18146;SDS011;9199;48.832;9.182;2023-05-07T14:36:55;7.77;;;2.90;;
18146;SDS011;9199;48.832;9.182;2023-05-07T14:39:22;5.43;;;2.55;;
18146;SDS011;9199;48.832;9.182;2023-05-07T14:41:50;5.57;;;2.60;;
18146;SDS011;9199;48.832;9.182;2023-05-07T14:44:19;5.55;;;2.70;;
18146;SDS011;9199;48.832;9.182;2023-05-07T14:46:46;7.38;;;2.67;;
18146;SDS011;9199;48.832;9.182;2023-05-07T14:49:13;5.07;;;2.37;;
18146;SDS011;9199;48.832;9.182;2023-05-07T14:51:42;5.75;;;2.72;;
18146;SDS011;9199;48.832;9.182;2023-05-07T14:54:09;5.25;;;2.30;;
18146;SDS011;9199;48.832;9.182;2023-05-07T14:56:36;6.45;;;2.28;;
18146;SDS011;9199;48.832;9.182;2023-05-07T14:59:04;6.93;;;2.38;;
18146;SDS011;9199;48.832;9.182;2023-05-07T15:01:31;7.33;;;2.20;;
18146;SDS011;9199;48.832;9.182;2023-05-07T15:03:59;5.68;;;2.40;;
18146;SDS011;9199;48.832;9.182;2023-05-07T15:06:26;5.72;;;2.80;;
18146;SDS011;9199;48.832;9.182;2023-05-07T15:08:54;5.47;;;2.40;;
18146;SDS011;9199;48.832;9.182;2023-05-07T15:11:21;5.65;;;2.78;;
18146;SDS011;9199;48.832;9.182;2023-05-07T15:13:47;5.47;;;2.50;;
18146;SDS011;9199;48.832;9.182;2023-05-07T15:16:16;5.45;;;2.65;;
18146;SDS011;9199;48.832;9.182;2023-05-07T15:18:42;6.93;;;2.97;;